Time;durP1;ratioP1;P1;durP2;ratioP2;P2;SDS_P1;SDS_P2;PMS_P1;PMS_P2;Temp;Humidity;BMP_temperature;BMP_pressure;BME280_temperature;BME280_humidity;BME280_pressure;Samples;Min_cycle;Max_cycle;Signal;HPM_P1;HPM_P2
2022/11/24 00:03:07;;;;;;;32.60;16.50;;;;;;;5.84;100.00;100091.59;10594403;27;20050;-72
2022/11/24 00:08:08;;;;;;;38.83;17.30;;;;;;;5.84;100.00;100091.59;10589261;27;20043;-70
2022/11/24 00:13:09;;;;;;;33.58;17.63;;;;;;;5.99;100.00;100110.22;10566874;28;20126;-73
2022/11/24 00:18:09;;;;;;;34.65;18.00;;;;;;;6.11;100.00;100106.63;10583247;28;20028;-73
2022/11/24 00:23:10;;;;;;;36.13;17.10;;;;;;;6.28;100.00;100112.13;10580694;27;20082;-73
2022/11/24 00:28:10;;;;;;;31.45;15.35;;;;;;;6.13;100.00;100094.38;10583206;27;20035;-73
2022/11/24 00:33:11;;;;;;;35.75;16.80;;;;;;;6.13;100.00;100105.28;10582766;27;20079;-73
2022/11/24 00:38:11;;;;;;;34.83;16.02;;;;;;;6.08;100.00;100107.94;10581810;28;20043;-73
2022/11/24 00:43:12;;;;;;;34.17;14.95;;;;;;;5.99;100.00;100114.84;10564881;27;20031;-73
2022/11/24 00:48:13;;;;;;;40.13;16.42;;;;;;;5.93;100.00;100121.25;10565216;27;20035;-73
2022/11/24 00:53:14;;;;;;;29.73;14.75;;;;;;;5.91;100.00;100120.66;10582532;27;20040;-73
2022/11/24 00:58:14;;;;;;;30.15;13.32;;;;;;;5.86;100.00;100122.22;10548620;28;20050;-71
2022/11/24 01:03:15;;;;;;;38.60;14.48;;;;;;;5.81;100.00;100113.94;10592182;27;20031;-73
2022/11/24 01:08:16;;;;;;;38.65;14.35;;;;;;;5.76;100.00;100122.00;10549615;28;20051;-73
2022/11/24 01:13:16;;;;;;;38.28;14.27;;;;;;;5.75;100.00;100120.38;10581264;28;20495;-73
2022/11/24 01:18:17;;;;;;;32.17;12.13;;;;;;;5.74;100.00;100124.16;10564852;28;20041;-74
2022/11/24 01:23:18;;;;;;;33.75;11.75;;;;;;;5.73;100.00;100138.06;10600454;27;20035;-73
2022/11/24 01:28:18;;;;;;;35.40;11.40;;;;;;;5.72;100.00;100145.41;10589408;27;20042;-73
2022/11/24 01:33:18;;;;;;;34.20;12.15;;;;;;;5.68;100.00;100149.69;10624445;27;20035;-74
2022/11/24 01:38:19;;;;;;;29.48;11.73;;;;;;;5.75;100.00;100168.69;10623022;27;20023;-73
2022/11/24 01:43:20;;;;;;;25.92;11.13;;;;;;;5.61;100.00;100173.56;10583353;27;20040;-73
2022/11/24 01:48:28;;;;;;;33.85;11.00;;;;;;;5.55;100.00;100174.53;10580379;28;20081;-73
2022/11/24 01:53:29;;;;;;;30.80;10.43;;;;;;;5.60;100.00;100193.75;10547554;27;20046;-74
2022/11/24 01:58:30;;;;;;;28.27;10.57;;;;;;;5.54;100.00;100181.03;10580290;28;20043;-73
2022/11/24 02:03:33;;;;;;;30.88;10.48;;;;;;;5.51;100.00;100196.00;10579826;28;20040;-73
2022/11/24 02:08:41;;;;;;;25.52;8.95;;;;;;;5.47;100.00;100198.38;10568142;28;20042;-73
2022/11/24 02:13:42;;;;;;;35.42;9.77;;;;;;;5.57;100.00;100210.63;10562649;28;20114;-73
2022/11/24 02:18:42;;;;;;;30.08;9.38;;;;;;;5.63;100.00;100215.13;10546078;28;20036;-73
2022/11/24 02:23:45;;;;;;;31.80;8.68;;;;;;;5.64;100.00;100225.81;10546449;28;20047;-73
2022/11/24 02:28:46;;;;;;;34.40;9.60;;;;;;;5.56;100.00;100220.72;10580837;28;20070;-73
2022/11/24 02:33:48;;;;;;;36.17;9.15;;;;;;;5.52;100.00;100221.41;10561934;28;20445;-73
2022/11/24 02:38:48;;;;;;;31.13;9.88;;;;;;;5.62;100.00;100232.56;10545171;28;20046;-73
2022/11/24 02:43:52;;;;;;;24.17;7.45;;;;;;;5.50;100.00;100213.47;10546986;27;20036;-73
2022/11/24 02:48:53;;;;;;;30.92;8.38;;;;;;;5.44;100.00;100223.44;10577873;27;20038;-73
2022/11/24 02:53:53;;;;;;;29.95;8.38;;;;;;;5.45;100.00;100237.91;10612102;27;20043;-72
2022/11/24 02:58:54;;;;;;;29.95;7.50;;;;;;;5.49;100.00;100247.28;10628578;27;20088;-73
2022/11/24 03:03:54;;;;;;;30.95;8.38;;;;;;;5.37;100.00;100240.97;10592708;27;20044;-73
2022/11/24 03:08:55;;;;;;;23.20;7.68;;;;;;;5.36;100.00;100240.16;10585696;27;20035;-73
2022/11/24 03:13:55;;;;;;;39.58;7.07;;;;;;;5.35;100.00;100254.88;10569672;27;20035;-73
2022/11/24 03:18:56;;;;;;;37.40;6.95;;;;;;;5.40;100.00;100260.47;10586284;27;20036;-71
2022/11/24 03:23:56;;;;;;;41.58;8.32;;;;;;;5.36;100.00;100251.09;10585728;27;23070;-72
2022/11/24 03:28:57;;;;;;;30.45;6.53;;;;;;;5.41;100.00;100264.00;10584445;27;20077;-72
2022/11/24 03:33:57;;;;;;;26.80;7.60;;;;;;;5.57;100.00;100281.63;10589061;27;20038;-72
2022/11/24 03:38:58;;;;;;;25.83;7.38;;;;;;;5.61;100.00;100266.41;10567759;27;20039;-73
2022/11/24 03:43:58;;;;;;;34.85;7.22;;;;;;;5.78;100.00;100278.28;10586485;27;20028;-72
2022/11/24 03:48:59;;;;;;;28.98;6.50;;;;;;;5.90;100.00;100291.13;10586701;27;20028;-73
2022/11/24 03:53:59;;;;;;;27.50;6.82;;;;;;;5.99;100.00;100296.00;10585143;27;20039;-73
2022/11/24 03:59:00;;;;;;;30.35;6.20;;;;;;;6.04;100.00;100287.94;10585062;27;20040;-72
2022/11/24 04:04:00;;;;;;;18.00;5.28;;;;;;;6.07;100.00;100292.09;10585376;27;20039;-73
2022/11/24 04:09:01;;;;;;;26.55;6.30;;;;;;;6.17;100.00;100310.63;10566689;27;20040;-73
2022/11/24 04:14:01;;;;;;;29.67;5.93;;;;;;;6.26;100.00;100320.13;10584318;27;20036;-73
2022/11/24 04:19:02;;;;;;;29.17;6.30;;;;;;;6.29;100.00;100316.91;10550082;27;20513;-73
2022/11/24 04:24:02;;;;;;;22.35;5.50;;;;;;;6.18;100.00;100306.81;10581523;27;20071;-73
2022/11/24 04:29:03;;;;;;;30.38;4.90;;;;;;;6.06;100.00;100329.53;10583651;27;20032;-73
2022/11/24 04:34:03;;;;;;;29.35;5.78;;;;;;;5.93;100.00;100320.69;10583303;28;20068;-73
2022/11/24 04:39:04;;;;;;;27.20;4.50;;;;;;;5.89;100.00;100344.94;10580009;28;20032;-73
2022/11/24 04:44:04;;;;;;;23.77;6.70;;;;;;;5.77;100.00;100353.13;10566313;28;20433;-73
2022/11/24 04:49:05;;;;;;;29.77;5.13;;;;;;;5.66;100.00;100373.91;10581966;28;20388;-73
2022/11/24 04:54:06;;;;;;;24.10;4.97;;;;;;;5.54;100.00;100363.97;10563572;27;20028;-72
2022/11/24 04:59:06;;;;;;;26.80;4.57;;;;;;;5.45;100.00;100364.31;10580272;27;20172;-73
2022/11/24 05:04:09;;;;;;;24.50;4.38;;;;;;;5.30;100.00;100374.84;10581622;27;20147;-73
2022/11/24 05:09:12;;;;;;;19.45;4.65;;;;;;;5.14;100.00;100378.22;10563665;28;20048;-73
2022/11/24 05:14:14;;;;;;;25.00;4.53;;;;;;;4.80;100.00;100351.38;10581268;28;20078;-72
2022/11/24 05:19:15;;;;;;;25.38;5.78;;;;;;;4.77;100.00;100381.00;10580739;27;20043;-72
2022/11/24 05:24:15;;;;;;;21.75;4.85;;;;;;;4.58;100.00;100389.16;10580055;27;20067;-73
2022/11/24 05:29:15;;;;;;;23.40;4.32;;;;;;;4.48;100.00;100383.41;10579975;27;20031;-72
2022/11/24 05:34:17;;;;;;;19.58;4.03;;;;;;;4.49;100.00;100412.34;10581862;27;20039;-73
2022/11/24 05:39:18;;;;;;;26.45;4.13;;;;;;;4.32;100.00;100416.69;10563742;27;20044;-73
2022/11/24 05:44:18;;;;;;;24.38;4.28;;;;;;;4.11;100.00;100402.41;10581062;27;20120;-72
2022/11/24 05:49:19;;;;;;;20.73;4.30;;;;;;;4.07;100.00;100416.72;10580493;28;20048;-73
2022/11/24 05:54:19;;;;;;;19.75;5.13;;;;;;;4.06;100.00;100415.88;10562425;27;20036;-72
2022/11/24 05:59:20;;;;;;;31.33;5.57;;;;;;;4.08;100.00;100449.19;10579474;28;20035;-73
2022/11/24 06:04:20;;;;;;;22.77;4.60;;;;;;;4.11;100.00;100446.00;10526696;28;20033;-73
2022/11/24 06:09:21;;;;;;;25.58;4.90;;;;;;;4.10;100.00;100457.97;10554164;28;20511;-72
2022/11/24 06:14:21;;;;;;;24.55;5.20;;;;;;;4.15;100.00;100460.84;10538804;28;20078;-73
2022/11/24 06:19:21;;;;;;;30.15;6.63;;;;;;;4.35;100.00;100470.78;10559296;28;20052;-73
2022/11/24 06:24:22;;;;;;;22.88;4.85;;;;;;;4.52;100.00;100492.84;10558499;27;20057;-73
2022/11/24 06:29:23;;;;;;;17.55;5.07;;;;;;;4.70;100.00;100500.22;10559467;27;20070;-71
2022/11/24 06:34:23;;;;;;;33.17;7.55;;;;;;;4.74;100.00;100504.19;10545888;28;20028;-72
2022/11/24 06:39:23;;;;;;;23.50;6.50;;;;;;;4.73;100.00;100500.59;10566630;28;20040;-72
2022/11/24 06:44:24;;;;;;;25.67;4.85;;;;;;;4.46;100.00;100489.09;10546327;28;20033;-72
2022/11/24 06:49:24;;;;;;;25.17;5.32;;;;;;;4.61;100.00;100524.19;10548092;28;20039;-73
2022/11/24 06:54:25;;;;;;;39.78;5.35;;;;;;;4.53;100.00;100540.88;10544739;28;20111;-73
2022/11/24 06:59:26;;;;;;;28.02;5.10;;;;;;;4.62;100.00;100553.16;10546507;28;20469;-74
2022/11/24 07:04:26;;;;;;;26.88;5.65;;;;;;;4.51;100.00;100535.63;10537835;27;20483;-72
2022/11/24 07:09:27;;;;;;;27.58;5.38;;;;;;;4.23;100.00;100490.56;10586578;27;20043;-73
2022/11/24 07:14:27;;;;;;;26.83;6.38;;;;;;;4.60;100.00;100558.81;10587689;27;20032;-73
2022/11/24 07:19:28;;;;;;;42.60;6.93;;;;;;;4.71;100.00;100580.97;10588899;27;20084;-73
2022/11/24 07:24:28;;;;;;;24.88;6.45;;;;;;;4.80;100.00;100587.81;10570103;27;20031;-73
2022/11/24 07:29:29;;;;;;;23.00;5.18;;;;;;;4.88;100.00;100579.34;10566336;27;20043;-73
2022/11/24 07:34:29;;;;;;;39.33;6.13;;;;;;;4.93;100.00;100587.69;10568619;28;20031;-73
2022/11/24 07:39:30;;;;;;;28.50;6.13;;;;;;;4.99;100.00;100613.25;10586579;27;20040;-74
2022/11/24 07:44:30;;;;;;;21.48;6.07;;;;;;;4.87;100.00;100607.69;10585894;27;20054;-73
2022/11/24 07:49:31;;;;;;;18.25;4.70;;;;;;;5.02;100.00;100612.78;10569213;27;20036;-73
2022/11/24 07:54:31;;;;;;;31.77;7.65;;;;;;;5.05;100.00;100624.09;10585886;27;20032;-71
2022/11/24 07:59:32;;;;;;;31.25;6.18;;;;;;;5.04;100.00;100629.78;10585960;27;22364;-73
2022/11/24 08:04:32;;;;;;;22.90;6.40;;;;;;;4.91;100.00;100621.72;10584304;27;20028;-73
2022/11/24 08:09:33;;;;;;;25.52;6.95;;;;;;;5.11;100.00;100643.38;10545587;28;20044;-73
2022/11/24 08:14:33;;;;;;;34.15;6.05;;;;;;;5.22;100.00;100657.09;10528549;28;20091;-73
2022/11/24 08:19:34;;;;;;;32.80;6.68;;;;;;;5.28;100.00;100646.38;10513528;28;20036;-73
2022/11/24 08:24:34;;;;;;;23.83;5.38;;;;;;;5.26;100.00;100657.50;10521956;28;20036;-73
2022/11/24 08:29:35;;;;;;;25.15;6.13;;;;;;;5.02;100.00;100601.88;10522176;28;20031;-73
2022/11/24 08:34:35;;;;;;;34.42;7.28;;;;;;;5.47;100.00;100670.72;10524992;28;20399;-73
2022/11/24 08:39:36;;;;;;;34.53;6.95;;;;;;;5.59;100.00;100669.97;10551762;27;20255;-72
2022/11/24 08:44:36;;;;;;;33.38;7.97;;;;;;;5.65;100.00;100675.38;10570592;27;20470;-73
2022/11/24 08:49:36;;;;;;;35.20;7.10;;;;;;;5.72;100.00;100677.19;10570991;27;20488;-73
2022/11/24 08:54:37;;;;;;;22.23;5.88;;;;;;;5.73;100.00;100671.50;10563694;28;20522;-73
2022/11/24 08:59:37;;;;;;;27.73;7.78;;;;;;;5.71;100.00;100675.53;10492260;28;20036;-73
2022/11/24 09:04:38;;;;;;;31.25;7.63;;;;;;;5.84;100.00;100700.78;10492666;28;20523;-73
2022/11/24 09:09:38;;;;;;;35.15;8.98;;;;;;;5.97;100.00;100701.72;10480217;28;20051;-74
2022/11/24 09:14:39;;;;;;;28.23;7.55;;;;;;;6.17;100.00;100718.72;10497731;28;20417;-73
2022/11/24 09:19:39;;;;;;;30.38;7.85;;;;;;;6.30;100.00;100717.72;10498140;28;20099;-74
2022/11/24 09:24:40;;;;;;;22.45;7.45;;;;;;;6.39;100.00;100710.91;10503368;28;20036;-74
2022/11/24 09:29:40;;;;;;;19.00;7.28;;;;;;;6.50;100.00;100725.69;10554366;27;20110;-73
2022/11/24 09:34:41;;;;;;;27.80;7.13;;;;;;;6.60;100.00;100734.16;10506205;28;20052;-73
2022/11/24 09:39:41;;;;;;;18.70;6.28;;;;;;;6.72;100.00;100734.22;10478381;28;20045;-73
2022/11/24 09:45:18;;;;;;;20.30;6.20;;;;;;;6.81;100.00;100732.81;10496351;28;20478;-73
2022/11/24 09:50:23;;;;;;;19.05;5.53;;;;;;;6.92;100.00;100742.13;10526247;28;20127;-73
2022/11/24 09:55:49;;;;;;;23.25;7.30;;;;;;;7.17;100.00;100746.59;10491494;28;20075;-73
2022/11/24 10:00:50;;;;;;;20.77;5.22;;;;;;;7.27;100.00;100755.06;10515741;28;20051;-74
2022/11/24 10:05:51;;;;;;;12.45;5.05;;;;;;;7.27;100.00;100731.25;10524403;28;20036;-74
2022/11/24 10:11:00;;;;;;;14.18;5.13;;;;;;;7.47;100.00;100750.09;10509096;28;20039;-73
2022/11/24 10:16:11;;;;;;;12.52;4.20;;;;;;;7.66;100.00;100741.75;10509435;28;20392;-73
2022/11/24 10:21:27;;;;;;;12.13;3.78;;;;;;;7.91;100.00;100759.88;10508040;28;20040;-73
2022/11/24 10:26:45;;;;;;;12.80;4.13;;;;;;;7.91;100.00;100748.91;10518202;28;20040;-73
2022/11/24 10:31:46;;;;;;;13.57;4.15;;;;;;;8.05;100.00;100767.59;10478411;28;20439;-74
2022/11/24 10:37:24;;;;;;;11.73;4.93;;;;;;;8.26;100.00;100781.75;10494572;28;20045;-73
2022/11/24 10:42:26;;;;;;;11.60;3.10;;;;;;;8.49;100.00;100780.91;10518751;28;20039;-73
2022/11/24 10:47:27;;;;;;;10.32;3.05;;;;;;;8.61;100.00;100781.69;10517956;28;20093;-73
2022/11/24 10:52:29;;;;;;;12.98;3.25;;;;;;;8.77;100.00;100782.84;10490186;28;20069;-73
2022/11/24 10:57:35;;;;;;;6.93;2.63;;;;;;;8.94;100.00;100788.38;10506035;28;20059;-73
2022/11/24 11:02:37;;;;;;;7.05;2.45;;;;;;;9.00;100.00;100795.63;10491378;28;20504;-72
2022/11/24 11:07:37;;;;;;;16.40;2.35;;;;;;;9.31;100.00;100809.13;10511736;28;20447;-74
2022/11/24 11:12:38;;;;;;;6.72;1.92;;;;;;;9.35;100.00;100791.88;10569175;28;20051;-72
2022/11/24 11:17:38;;;;;;;8.93;1.90;;;;;;;9.56;100.00;100809.53;10587728;28;20506;-72
2022/11/24 11:22:39;;;;;;;7.97;2.20;;;;;;;9.88;100.00;100812.53;10535519;28;20043;-72
2022/11/24 11:27:40;;;;;;;6.68;1.98;;;;;;;10.01;100.00;100816.03;10512590;28;20036;-73
2022/11/24 11:32:57;;;;;;;5.82;1.98;;;;;;;10.16;100.00;100818.16;10544037;28;20043;-72
2022/11/24 11:38:00;;;;;;;7.82;1.85;;;;;;;10.62;100.00;100827.06;10541597;27;20040;-72
2022/11/24 11:43:27;;;;;;;7.82;2.78;;;;;;;10.54;100.00;100828.34;10564419;27;20474;-72
2022/11/24 11:48:32;;;;;;;8.75;1.75;;;;;;;10.34;100.00;100836.34;10564490;27;20035;-72
2022/11/24 11:53:43;;;;;;;8.27;2.75;;;;;;;10.24;100.00;100829.56;10564506;27;20506;-72
2022/11/24 11:59:07;;;;;;;7.65;2.60;;;;;;;10.25;100.00;100844.16;10547786;27;20036;-72
2022/11/24 12:04:47;;;;;;;6.03;2.15;;;;;;;10.12;100.00;100837.09;10552134;27;20047;-72
2022/11/24 12:10:09;;;;;;;6.00;2.35;;;;;;;10.25;100.00;100850.50;10528760;27;20036;-73
2022/11/24 12:15:18;;;;;;;5.32;2.38;;;;;;;10.45;100.00;100849.16;10562253;28;20250;-71
2022/11/24 12:20:25;;;;;;;9.00;2.70;;;;;;;10.25;100.00;100797.38;10553310;27;20043;-71
2022/11/24 12:25:29;;;;;;;3.95;2.05;;;;;;;10.62;100.00;100849.94;10565204;27;20031;-71
2022/11/24 12:30:37;;;;;;;6.93;2.55;;;;;;;10.79;100.00;100847.13;10565021;27;20027;-71
2022/11/24 12:35:45;;;;;;;10.93;2.55;;;;;;;11.09;100.00;100843.06;10574652;28;20046;-71
2022/11/24 12:41:07;;;;;;;11.68;2.88;;;;;;;11.46;100.00;100848.69;10543362;27;20047;-71
2022/11/24 12:46:17;;;;;;;7.75;3.33;;;;;;;11.82;100.00;100845.41;10563372;27;20059;-72
2022/11/24 12:51:24;;;;;;;10.70;2.55;;;;;;;12.35;100.00;100860.19;10546440;28;20032;-71
2022/11/24 12:56:53;;;;;;;7.30;2.05;;;;;;;12.44;100.00;100792.34;10563800;27;20042;-70
2022/11/24 13:02:21;;;;;;;8.98;2.13;;;;;;;13.18;100.00;100855.84;10538549;27;20043;-71
2022/11/24 13:07:37;;;;;;;10.25;2.33;;;;;;;13.75;100.00;100854.06;10561985;27;20048;-72
2022/11/24 13:13:10;;;;;;;5.38;1.90;;;;;;;14.16;100.00;100846.56;10561283;28;20036;-71
2022/11/24 13:18:46;;;;;;;11.35;3.53;;;;;;;13.87;100.00;100835.22;10556807;27;20040;-70
2022/11/24 13:24:01;;;;;;;9.00;2.15;;;;;;;12.96;100.00;100859.66;10558172;27;20036;-71
2022/11/24 13:29:03;;;;;;;10.52;2.78;;;;;;;11.88;100.00;100861.75;10558728;28;20392;-72
2022/11/24 13:34:48;;;;;;;11.00;2.80;;;;;;;11.22;100.00;100880.41;10556520;28;20024;-71
2022/11/24 13:39:53;;;;;;;7.80;2.20;;;;;;;10.72;100.00;100876.78;10582529;27;20050;-71
2022/11/24 13:44:58;;;;;;;6.80;2.70;;;;;;;10.52;100.00;100882.00;10564811;28;20038;-71
2022/11/24 13:49:59;;;;;;;17.50;3.45;;;;;;;10.49;100.00;100888.84;10581841;28;20417;-71
2022/11/24 13:55:00;;;;;;;13.20;4.10;;;;;;;10.29;100.00;100873.72;10564076;28;20038;-71
2022/11/24 14:00:01;;;;;;;11.45;4.28;;;;;;;10.05;100.00;100877.72;10562353;28;20106;-71
2022/11/24 14:05:01;;;;;;;12.27;4.10;;;;;;;9.83;100.00;100877.63;10579475;28;20036;-70
2022/11/24 14:10:02;;;;;;;8.38;4.47;;;;;;;9.85;100.00;100901.03;10563972;28;20028;-70
2022/11/24 14:15:21;;;;;;;12.98;4.53;;;;;;;9.75;100.00;100906.34;10563996;28;20028;-71
2022/11/24 14:20:23;;;;;;;15.32;4.35;;;;;;;9.53;100.00;100909.00;10580747;28;20059;-71
2022/11/24 14:25:28;;;;;;;17.35;4.95;;;;;;;9.43;100.00;100926.13;10579158;28;20074;-70
2022/11/24 14:30:29;;;;;;;15.82;5.63;;;;;;;9.29;100.00;100925.56;10580220;28;20035;-71
2022/11/24 14:35:31;;;;;;;23.73;12.02;;;;;;;9.25;100.00;100924.38;10579227;28;20055;-71
2022/11/24 14:40:51;;;;;;;12.77;5.30;;;;;;;9.08;100.00;100926.25;10567981;27;20035;-71
2022/11/24 14:46:04;;;;;;;12.10;5.15;;;;;;;8.94;100.00;100944.91;10555363;27;20575;-72
2022/11/24 14:51:13;;;;;;;19.70;5.57;;;;;;;8.92;100.00;100944.28;10588385;28;20031;-71
2022/11/24 14:56:25;;;;;;;15.07;4.82;;;;;;;8.82;100.00;100935.84;10570358;27;20039;-70
2022/11/24 15:01:26;;;;;;;18.65;6.05;;;;;;;8.62;100.00;100941.69;10588349;27;20046;-71
2022/11/24 15:06:26;;;;;;;17.05;5.95;;;;;;;8.41;100.00;100945.88;10589039;27;20119;-71
2022/11/24 15:11:32;;;;;;;16.13;5.55;;;;;;;8.13;100.00;100954.78;10570737;27;20040;-71
2022/11/24 15:16:32;;;;;;;14.65;6.32;;;;;;;7.86;100.00;100964.25;10589007;27;20035;-72
2022/11/24 15:21:34;;;;;;;17.08;5.88;;;;;;;7.54;100.00;100969.16;10586780;27;20106;-72
2022/11/24 15:26:34;;;;;;;19.30;5.90;;;;;;;7.30;100.00;100978.31;10567940;27;20510;-71
2022/11/24 15:31:35;;;;;;;23.08;5.72;;;;;;;6.85;100.00;100958.41;10586637;27;20039;-71
2022/11/24 15:36:35;;;;;;;20.67;6.47;;;;;;;6.72;100.00;100972.25;10567987;27;20108;-71
2022/11/24 15:41:36;;;;;;;17.85;7.38;;;;;;;6.74;100.00;100996.63;10567657;27;20036;-72
2022/11/24 15:46:38;;;;;;;20.52;8.52;;;;;;;6.60;100.00;100995.94;10586561;27;20035;-72
2022/11/24 15:51:41;;;;;;;16.85;6.93;;;;;;;6.43;100.00;100996.53;10566903;27;20057;-71
2022/11/24 15:56:43;;;;;;;25.80;8.10;;;;;;;6.31;100.00;100998.31;10550160;27;20039;-72
2022/11/24 16:01:45;;;;;;;23.80;9.75;;;;;;;6.06;100.00;100980.00;10585541;27;20031;-72
2022/11/24 16:06:46;;;;;;;18.17;7.93;;;;;;;6.02;100.00;101002.53;10566786;28;20134;-72
2022/11/24 16:11:47;;;;;;;24.48;9.02;;;;;;;5.85;100.00;101000.28;10585904;27;20031;-72
2022/11/24 16:16:47;;;;;;;24.75;8.70;;;;;;;5.73;100.00;101015.69;10585785;27;20080;-73
2022/11/24 16:21:48;;;;;;;24.83;9.95;;;;;;;5.71;100.00;101039.66;10583481;27;20031;-72
2022/11/24 16:26:48;;;;;;;23.52;8.63;;;;;;;5.59;100.00;101038.69;10548841;27;20035;-72
2022/11/24 16:31:52;;;;;;;29.30;10.38;;;;;;;5.40;100.00;101035.81;10582239;27;20330;-72
2022/11/24 16:36:53;;;;;;;31.35;11.80;;;;;;;5.32;100.00;101038.78;10583691;27;20032;-74
2022/11/24 16:41:53;;;;;;;29.40;10.07;;;;;;;5.21;100.00;101042.19;10582722;27;20066;-71
2022/11/24 16:46:54;;;;;;;25.23;11.23;;;;;;;5.14;100.00;101042.19;10584685;27;20035;-72
2022/11/24 16:51:54;;;;;;;29.50;12.57;;;;;;;5.07;100.00;101029.63;10581604;27;20035;-71
2022/11/24 16:56:55;;;;;;;24.63;12.27;;;;;;;5.03;100.00;101031.94;10583464;27;20043;-72
2022/11/24 17:01:55;;;;;;;34.72;13.13;;;;;;;4.87;100.00;101019.59;10584054;27;20035;-72
2022/11/24 17:06:57;;;;;;;27.17;12.68;;;;;;;4.77;100.00;101020.03;10582636;27;20046;-71
2022/11/24 17:11:57;;;;;;;31.35;12.85;;;;;;;4.77;100.00;101030.94;10582494;27;20031;-72
2022/11/24 17:16:58;;;;;;;30.15;13.82;;;;;;;4.73;100.00;101018.78;10541375;27;20047;-71
2022/11/24 17:21:58;;;;;;;31.13;13.32;;;;;;;4.66;100.00;101017.94;10560552;27;20040;-72
2022/11/24 17:26:59;;;;;;;23.13;12.82;;;;;;;4.31;100.00;100965.56;10553649;28;20046;-71
2022/11/24 17:31:59;;;;;;;37.45;14.65;;;;;;;4.71;100.00;101033.69;10544559;27;20036;-72
2022/11/24 17:37:00;;;;;;;29.38;13.88;;;;;;;4.61;100.00;101020.47;10542871;28;20040;-71
2022/11/24 17:42:03;;;;;;;31.42;13.90;;;;;;;4.66;100.00;101034.31;10557958;28;20066;-72
2022/11/24 17:47:03;;;;;;;33.15;12.48;;;;;;;4.64;100.00;101039.97;10558387;27;20095;-74
2022/11/24 17:52:04;;;;;;;29.95;12.95;;;;;;;4.65;100.00;101044.41;10560656;28;20043;-72
2022/11/24 17:57:04;;;;;;;40.47;13.68;;;;;;;4.67;100.00;101040.59;10582913;27;20032;-73
2022/11/24 18:02:05;;;;;;;38.28;14.95;;;;;;;4.69;100.00;101038.50;10618209;27;20030;-72
2022/11/24 18:07:05;;;;;;;34.28;14.38;;;;;;;4.79;100.00;101047.09;10623058;27;20060;-73
2022/11/24 18:12:06;;;;;;;35.58;14.40;;;;;;;4.81;100.00;101058.63;10593090;27;20044;-72
2022/11/24 18:17:08;;;;;;;36.00;13.65;;;;;;;4.83;100.00;101042.91;10595189;27;20032;-72
2022/11/24 18:22:08;;;;;;;28.67;12.38;;;;;;;4.87;100.00;101044.16;10552242;28;20101;-72
2022/11/24 18:27:09;;;;;;;43.15;13.90;;;;;;;4.89;100.00;101055.69;10540590;28;20675;-72
2022/11/24 18:32:09;;;;;;;31.60;12.73;;;;;;;4.75;100.00;101033.03;10570385;28;20495;-72
2022/11/24 18:37:12;;;;;;;28.48;10.73;;;;;;;4.22;100.00;100990.31;10575570;28;20580;-73
2022/11/24 18:42:12;;;;;;;36.80;13.18;;;;;;;4.72;100.00;101058.03;10561926;27;20043;-73
2022/11/24 18:47:13;;;;;;;33.50;12.73;;;;;;;4.74;100.00;101061.38;10544924;28;20040;-72
2022/11/24 18:52:13;;;;;;;34.67;11.48;;;;;;;4.73;100.00;101065.13;10582281;27;20095;-72
2022/11/24 18:57:14;;;;;;;33.88;11.55;;;;;;;4.70;100.00;101059.28;10604579;27;20036;-73
2022/11/24 19:02:14;;;;;;;29.80;11.43;;;;;;;4.64;100.00;101056.34;10592649;27;20055;-72
2022/11/24 19:07:15;;;;;;;34.95;10.93;;;;;;;4.56;100.00;101056.53;10584541;27;20043;-72
2022/11/24 19:12:16;;;;;;;37.50;11.27;;;;;;;4.53;100.00;101070.63;10586763;28;20042;-73
2022/11/24 19:17:16;;;;;;;31.83;11.65;;;;;;;4.47;100.00;101078.81;10577390;28;20115;-72
2022/11/24 19:22:17;;;;;;;40.42;11.90;;;;;;;4.36;100.00;101066.59;10577900;28;20044;-72
2022/11/24 19:27:19;;;;;;;33.08;11.25;;;;;;;4.33;100.00;101064.31;10596244;27;20044;-73
2022/11/24 19:32:20;;;;;;;44.88;12.35;;;;;;;4.29;100.00;101055.72;10586875;27;20035;-72
2022/11/24 19:37:22;;;;;;;33.90;12.13;;;;;;;4.39;100.00;101060.75;10584577;27;20036;-72
2022/11/24 19:42:22;;;;;;;34.78;10.52;;;;;;;4.38;100.00;101064.50;10585731;27;20278;-72
2022/11/24 19:47:23;;;;;;;46.22;11.40;;;;;;;4.29;100.00;101055.72;10578797;27;20032;-72
2022/11/24 19:52:23;;;;;;;34.28;11.38;;;;;;;4.23;100.00;101054.66;10550187;27;20032;-71
2022/11/24 19:57:24;;;;;;;32.95;10.55;;;;;;;4.42;100.00;101082.13;10584477;27;20035;-72
2022/11/24 20:02:26;;;;;;;33.13;11.15;;;;;;;4.42;100.00;101082.13;10601065;27;21552;-72
2022/11/24 20:07:27;;;;;;;27.60;12.20;;;;;;;4.43;100.00;101078.38;10585065;27;20055;-72
2022/11/24 20:12:27;;;;;;;30.27;10.70;;;;;;;4.32;100.00;101049.00;10585053;27;20040;-72
2022/11/24 20:17:31;;;;;;;46.63;10.57;;;;;;;4.40;100.00;101068.72;10583231;27;20074;-71
2022/11/24 20:22:31;;;;;;;31.95;11.55;;;;;;;4.39;100.00;101079.84;10583315;27;20096;-72
2022/11/24 20:27:32;;;;;;;36.08;10.85;;;;;;;4.38;100.00;101069.97;10582813;28;20081;-72
2022/11/24 20:32:32;;;;;;;35.13;13.20;;;;;;;4.33;100.00;101058.88;10585203;27;20046;-71
2022/11/24 20:37:33;;;;;;;41.50;13.43;;;;;;;4.30;100.00;101056.53;10582253;27;20028;-73
2022/11/24 20:42:35;;;;;;;33.28;10.98;;;;;;;4.28;100.00;101047.72;10564605;27;20043;-73
2022/11/24 20:47:35;;;;;;;34.75;10.50;;;;;;;4.36;100.00;101058.44;10564774;27;20039;-72
2022/11/24 20:52:36;;;;;;;34.70;10.98;;;;;;;4.34;100.00;101053.22;10567191;27;20040;-73
2022/11/24 20:57:36;;;;;;;29.63;11.25;;;;;;;4.43;100.00;101056.56;10612054;27;20028;-71
2022/11/24 21:02:37;;;;;;;37.38;12.35;;;;;;;4.42;100.00;101060.31;10562162;27;20043;-72
2022/11/24 21:07:37;;;;;;;43.83;11.52;;;;;;;4.39;100.00;101052.56;10583251;27;20453;-72
2022/11/24 21:12:38;;;;;;;37.35;11.30;;;;;;;4.56;100.00;101072.91;10595246;27;20043;-72
2022/11/24 21:17:38;;;;;;;30.90;9.60;;;;;;;4.46;100.00;101061.59;10581226;28;20035;-73
2022/11/24 21:22:39;;;;;;;37.05;9.52;;;;;;;4.30;100.00;101040.19;10580807;28;20063;-73
2022/11/24 21:27:40;;;;;;;31.95;9.63;;;;;;;4.48;100.00;101070.38;10580819;27;20039;-73
2022/11/24 21:32:40;;;;;;;50.17;10.57;;;;;;;4.36;100.00;101052.97;10581370;27;20028;-73
2022/11/24 21:37:41;;;;;;;33.42;8.82;;;;;;;4.41;100.00;101050.47;10580199;27;20039;-72
2022/11/24 21:42:41;;;;;;;28.98;8.82;;;;;;;4.67;100.00;101063.25;10562876;27;20073;-70
2022/11/24 21:47:42;;;;;;;34.42;9.15;;;;;;;4.70;100.00;101060.13;10563587;27;20032;-73
2022/11/24 21:52:42;;;;;;;31.27;8.57;;;;;;;4.68;100.00;101054.03;10580209;27;20062;-73
2022/11/24 21:57:43;;;;;;;29.77;9.25;;;;;;;4.74;100.00;101049.63;10580146;28;20404;-74
2022/11/24 22:02:44;;;;;;;24.75;8.52;;;;;;;4.81;100.00;101036.81;10596669;27;20044;-73
2022/11/24 22:07:44;;;;;;;32.35;8.23;;;;;;;4.90;100.00;101041.00;10562674;28;20032;-73
2022/11/24 22:12:45;;;;;;;28.02;9.23;;;;;;;4.92;100.00;101040.78;10581275;28;20069;-73
2022/11/24 22:17:45;;;;;;;27.02;7.97;;;;;;;4.79;100.00;101020.66;10546583;27;20057;-73
2022/11/24 22:22:46;;;;;;;29.63;7.95;;;;;;;4.86;100.00;101045.22;10579075;27;20043;-74
2022/11/24 22:27:46;;;;;;;29.95;7.95;;;;;;;4.85;100.00;101038.91;10579647;28;20059;-71
2022/11/24 22:32:46;;;;;;;22.45;8.00;;;;;;;4.75;100.00;101024.84;10563637;28;20040;-73
2022/11/24 22:37:47;;;;;;;29.75;8.18;;;;;;;4.82;100.00;101049.41;10581788;27;20062;-73
2022/11/24 22:42:47;;;;;;;25.85;6.95;;;;;;;4.67;100.00;101029.69;10549077;28;20062;-74
2022/11/24 22:47:52;;;;;;;27.95;7.75;;;;;;;4.61;100.00;101021.31;10576887;27;20039;-73
2022/11/24 22:52:53;;;;;;;27.70;6.20;;;;;;;4.64;100.00;101023.63;10579519;27;20051;-73